Nearby METAR Reports

 

KFFZ - Mesa/Falcon Fld, Arizona, USA
Distance from station: ENE 9mi, 15km
Updated: Wed, 21-Feb-2018 6:51am MST
Clear
Clear
 Wind from NNE
Wind: NNE 9 mph , 15 km/h
Temperature: 39°F , 4°C
Wind Chill: 33°F , 1°C
Dew Point: 18°F , -8°C
Humidity: 42%
Barometer: 30.08 inHg , 1018.6 hPa
Clouds: Clear
Visibility: 20 miles , 32 km
2018/02/21 13:51 KFFZ 211351Z 02008KT 20SM SKC 04/M08 A3008
KIWA - Chandler/Mesa, Arizona, USA
Distance from station: ESE 14mi, 22km
Updated: Wed, 21-Feb-2018 6:47am MST
Few Clouds
Few Clouds
 Wind from SE
Wind: SE 9 mph , 15 km/h
Temperature: 36°F , 2°C
Wind Chill: 29°F , -2°C
Dew Point: 27°F , -3°C
Humidity: 70%
Barometer: 30.09 inHg , 1019 hPa
Clouds: Few Clouds
Visibility: 35 miles , 56 km
Cloud details: Few Clouds 18000 ft
2018/02/21 13:47 KIWA 211347Z 13008KT 35SM FEW180 02/M03 A3009
 
KFLG - Flagstaff, Arizona, USA
Distance from station: N 120mi, 193km
Updated: Wed, 21-Feb-2018 6:57am MST
Clear
Clear
 Wind from calm
Wind: Calm
Temperature: 3°F , -16°C
Dew Point: -0°F , -18°C
Humidity: 85%
Barometer: 29.99 inHg , 1015.6 hPa
Clouds: Clear
Visibility: 10 miles , 16 km
2018/02/21 13:57 KFLG 211357Z AUTO 00000KT 10SM CLR M16/M18 A2999 RMK AO2 SLP204 T11611183
KTUS - Tucson, Arizona, USA
Distance from station: SSE 102mi, 164km
Updated: Wed, 21-Feb-2018 6:53am MST
Overcast
Overcast
 Wind from SSE
Wind: SSE 6 mph , 9 km/h
Temperature: 39°F , 4°C
Wind Chill: 35°F , 2°C
Dew Point: 34°F , 1°C
Humidity: 81%
Barometer: 30.08 inHg , 1018.6 hPa
Clouds: Overcast
Visibility: 10 miles , 16 km
Cloud details: Overcast 5500 ft
2018/02/21 13:53 KTUS 211353Z 15005KT 10SM OVC055 04/01 A3008 RMK AO2 SLP177 T00390006
 
KSOW - Show Low Municip, Arizona, USA
Distance from station: ENE 122mi, 196km
Updated: Wed, 21-Feb-2018 7:35am MST
Partly Cloudy
Partly Cloudy
 Wind from calm
Wind: Calm
Temperature: 28°F , -2°C
Dew Point: 23°F , -5°C
Humidity: 80%
Barometer: 30.04 inHg , 1017.3 hPa
Clouds: Partly Cloudy
Visibility: 10 miles , 16 km
Cloud details: Partly Cloudy 3600 ft
2018/02/21 14:35 KSOW 211435Z AUTO 00000KT 10SM SCT036 M02/M05 A3004 RMK AO2
KINW - Winslow, Arizona, USA
Distance from station: NNE 130mi, 209km
Updated: Wed, 21-Feb-2018 6:56am MST
Clear
Clear
 Wind from SSW
Wind: SSW 6 mph , 9 km/h
Temperature: 7°F , -14°C
Wind Chill: -4°F , -20°C
Dew Point: -6°F , -21°C
Humidity: 56%
Barometer: 30.08 inHg , 1018.6 hPa
Clouds: Clear
Visibility: 10 miles , 16 km
2018/02/21 13:56 KINW 211356Z AUTO 21005KT 10SM CLR M14/M21 A3008 RMK AO2 SLP227 T11441206
 
KPRC - Prescott, Arizona, USA
Distance from station: NNW 92mi, 148km
Updated: Wed, 21-Feb-2018 6:53am MST
Clear
Clear
 Wind from S
Wind: S 3 mph , 6 km/h
Temperature: 16°F , -9°C
Dew Point: 9°F , -13°C
Humidity: 73%
Barometer: 30.01 inHg , 1016.3 hPa
Clouds: Clear
Visibility: 10 miles , 16 km
2018/02/21 13:53 KPRC 211353Z 17003KT 10SM CLR M09/M13 A3001 RMK AO2 SLP179 T10891133
KPAN - Payson, Arizona, USA
Distance from station: NNE 66mi, 106km
Updated: Wed, 21-Feb-2018 7:35am MST
Clear
Clear
 Wind from calm
Wind: Calm
Temperature: 25°F , -4°C
Dew Point: 14°F , -10°C
Humidity: 63%
Barometer: 30.04 inHg , 1017.3 hPa
Clouds: Clear
Visibility: 10 miles , 16 km
2018/02/21 14:35 KPAN 211435Z AUTO 00000KT 10SM CLR M04/M10 A3004 RMK AO2
 
KSEZ - Sedona, Arizona, USA
Distance from station: N 100mi, 161km
Updated: Wed, 21-Feb-2018 7:35am MST
Clear
Clear
 Wind from NE
Wind: NE 6 mph , 9 km/h
Temperature: 30°F , -1°C
Wind Chill: 24°F , -4°C
Dew Point: 5°F , -15°C
Humidity: 34%
Barometer: 30.04 inHg , 1017.3 hPa
Clouds: Clear
Visibility: 10 miles , 16 km
2018/02/21 14:35 KSEZ 211435Z AUTO 04005KT 10SM CLR M01/M15 A3004 RMK AO2
KSAD - Safford, Arizona, USA
Distance from station: ESE 150mi, 241km
Updated: Wed, 21-Feb-2018 6:51am MST
Mostly Cloudy
Mostly Cloudy
 Wind from NNW
Wind: NNW 6 mph , 9 km/h
Temperature: 34°F , 1°C
Wind Chill: 29°F , -2°C
Dew Point: 28°F , -2°C
Humidity: 81%
Barometer: 30.07 inHg , 1018.3 hPa
Clouds: Mostly Cloudy
Visibility: 10 miles , 16 km
Cloud details: Mostly Cloudy 7500 ft
2018/02/21 13:51 KSAD 211351Z AUTO 33005KT 10SM BKN075 01/M02 A3007 RMK AO2 SLP180 T00061017